sensor_id;sensor_type;location;lat;lon;timestamp;P1;durP1;ratioP1;P2;durP2;ratioP2
71910;SDS011;59783;52.232;5.170;2023-02-22T00:01:41;71.47;;;32.17;;
71910;SDS011;59783;52.232;5.170;2023-02-22T00:04:15;68.25;;;32.10;;
71910;SDS011;59783;52.232;5.170;2023-02-22T00:06:44;64.20;;;30.85;;
71910;SDS011;59783;52.232;5.170;2023-02-22T00:09:09;62.80;;;32.10;;
71910;SDS011;59783;52.232;5.170;2023-02-22T00:11:34;70.70;;;30.73;;
71910;SDS011;59783;52.232;5.170;2023-02-22T00:13:59;66.17;;;33.03;;
71910;SDS011;59783;52.232;5.170;2023-02-22T00:16:26;68.72;;;31.38;;
71910;SDS011;59783;52.232;5.170;2023-02-22T00:18:52;73.93;;;32.42;;
71910;SDS011;59783;52.232;5.170;2023-02-22T00:21:17;63.42;;;30.30;;
71910;SDS011;59783;52.232;5.170;2023-02-22T00:23:44;72.28;;;31.92;;
71910;SDS011;59783;52.232;5.170;2023-02-22T00:26:17;64.57;;;31.85;;
71910;SDS011;59783;52.232;5.170;2023-02-22T00:28:42;70.65;;;31.45;;
71910;SDS011;59783;52.232;5.170;2023-02-22T00:31:08;65.22;;;30.17;;
71910;SDS011;59783;52.232;5.170;2023-02-22T00:33:33;70.38;;;31.17;;
71910;SDS011;59783;52.232;5.170;2023-02-22T00:36:00;59.72;;;30.95;;
71910;SDS011;59783;52.232;5.170;2023-02-22T00:38:25;61.23;;;30.77;;
71910;SDS011;59783;52.232;5.170;2023-02-22T00:40:50;60.83;;;30.88;;
71910;SDS011;59783;52.232;5.170;2023-02-22T00:43:16;61.83;;;31.67;;
71910;SDS011;59783;52.232;5.170;2023-02-22T00:45:41;62.53;;;33.40;;
71910;SDS011;59783;52.232;5.170;2023-02-22T00:48:06;64.20;;;31.73;;
71910;SDS011;59783;52.232;5.170;2023-02-22T00:50:32;63.72;;;32.58;;
71910;SDS011;59783;52.232;5.170;2023-02-22T00:52:58;64.28;;;33.15;;
71910;SDS011;59783;52.232;5.170;2023-02-22T00:55:25;65.45;;;32.03;;
71910;SDS011;59783;52.232;5.170;2023-02-22T00:57:50;67.50;;;32.25;;
71910;SDS011;59783;52.232;5.170;2023-02-22T01:00:17;60.85;;;34.95;;
71910;SDS011;59783;52.232;5.170;2023-02-22T01:02:43;57.60;;;33.28;;
71910;SDS011;59783;52.232;5.170;2023-02-22T01:05:10;59.97;;;33.50;;
71910;SDS011;59783;52.232;5.170;2023-02-22T01:07:40;58.15;;;29.73;;
71910;SDS011;59783;52.232;5.170;2023-02-22T01:10:06;60.63;;;32.80;;
71910;SDS011;59783;52.232;5.170;2023-02-22T01:12:32;63.22;;;30.75;;
71910;SDS011;59783;52.232;5.170;2023-02-22T01:14:58;54.90;;;31.75;;
71910;SDS011;59783;52.232;5.170;2023-02-22T01:17:23;54.47;;;32.03;;
71910;SDS011;59783;52.232;5.170;2023-02-22T01:19:49;55.70;;;30.25;;
71910;SDS011;59783;52.232;5.170;2023-02-22T01:22:14;60.10;;;32.38;;
71910;SDS011;59783;52.232;5.170;2023-02-22T01:24:39;61.40;;;33.63;;
71910;SDS011;59783;52.232;5.170;2023-02-22T01:27:05;58.53;;;31.30;;
71910;SDS011;59783;52.232;5.170;2023-02-22T01:29:30;58.28;;;31.67;;
71910;SDS011;59783;52.232;5.170;2023-02-22T01:31:55;57.92;;;30.60;;
71910;SDS011;59783;52.232;5.170;2023-02-22T01:34:21;58.17;;;32.57;;
71910;SDS011;59783;52.232;5.170;2023-02-22T01:36:46;59.88;;;33.63;;
71910;SDS011;59783;52.232;5.170;2023-02-22T01:39:11;58.00;;;30.67;;
71910;SDS011;59783;52.232;5.170;2023-02-22T01:41:37;59.17;;;31.47;;
71910;SDS011;59783;52.232;5.170;2023-02-22T01:44:19;58.28;;;30.73;;
71910;SDS011;59783;52.232;5.170;2023-02-22T01:46:46;60.53;;;30.55;;
71910;SDS011;59783;52.232;5.170;2023-02-22T01:49:12;57.55;;;32.65;;
71910;SDS011;59783;52.232;5.170;2023-02-22T01:51:39;55.88;;;29.73;;
71910;SDS011;59783;52.232;5.170;2023-02-22T01:54:08;56.33;;;31.05;;
71910;SDS011;59783;52.232;5.170;2023-02-22T01:56:35;58.70;;;31.10;;
71910;SDS011;59783;52.232;5.170;2023-02-22T01:59:02;62.83;;;33.95;;
71910;SDS011;59783;52.232;5.170;2023-02-22T02:01:30;58.40;;;32.42;;
71910;SDS011;59783;52.232;5.170;2023-02-22T02:03:57;63.08;;;34.58;;
71910;SDS011;59783;52.232;5.170;2023-02-22T02:06:23;61.35;;;32.58;;
71910;SDS011;59783;52.232;5.170;2023-02-22T02:11:27;57.83;;;30.35;;
71910;SDS011;59783;52.232;5.170;2023-02-22T02:13:53;58.53;;;32.70;;
71910;SDS011;59783;52.232;5.170;2023-02-22T02:16:19;53.10;;;32.15;;
71910;SDS011;59783;52.232;5.170;2023-02-22T02:18:45;58.28;;;31.83;;
71910;SDS011;59783;52.232;5.170;2023-02-22T02:31:55;61.55;;;33.95;;
71910;SDS011;59783;52.232;5.170;2023-02-22T02:34:26;58.28;;;34.78;;
71910;SDS011;59783;52.232;5.170;2023-02-22T02:40:10;53.83;;;31.13;;
71910;SDS011;59783;52.232;5.170;2023-02-22T02:42:16;57.80;;;31.40;;
71910;SDS011;59783;52.232;5.170;2023-02-22T02:44:47;57.03;;;34.25;;
71910;SDS011;59783;52.232;5.170;2023-02-22T02:47:33;60.50;;;31.80;;
71910;SDS011;59783;52.232;5.170;2023-02-22T02:50:03;55.10;;;30.90;;
71910;SDS011;59783;52.232;5.170;2023-02-22T02:52:29;53.53;;;31.83;;
71910;SDS011;59783;52.232;5.170;2023-02-22T02:54:55;55.75;;;32.70;;
71910;SDS011;59783;52.232;5.170;2023-02-22T02:57:21;56.97;;;34.00;;
71910;SDS011;59783;52.232;5.170;2023-02-22T02:59:46;63.92;;;32.17;;
71910;SDS011;59783;52.232;5.170;2023-02-22T03:09:52;54.13;;;31.17;;
71910;SDS011;59783;52.232;5.170;2023-02-22T03:14:54;58.60;;;34.95;;
71910;SDS011;59783;52.232;5.170;2023-02-22T03:17:37;55.58;;;32.75;;
71910;SDS011;59783;52.232;5.170;2023-02-22T03:25:16;54.83;;;33.10;;
71910;SDS011;59783;52.232;5.170;2023-02-22T03:27:51;56.25;;;33.75;;
71910;SDS011;59783;52.232;5.170;2023-02-22T03:32:45;51.10;;;31.92;;
71910;SDS011;59783;52.232;5.170;2023-02-22T03:35:18;53.80;;;32.67;;
71910;SDS011;59783;52.232;5.170;2023-02-22T03:40:13;51.90;;;32.15;;
71910;SDS011;59783;52.232;5.170;2023-02-22T03:42:43;59.22;;;32.20;;
71910;SDS011;59783;52.232;5.170;2023-02-22T03:45:10;55.33;;;34.45;;
71910;SDS011;59783;52.232;5.170;2023-02-22T03:47:40;53.78;;;32.65;;
71910;SDS011;59783;52.232;5.170;2023-02-22T03:52:31;55.83;;;33.60;;
71910;SDS011;59783;52.232;5.170;2023-02-22T03:54:57;53.40;;;32.65;;
71910;SDS011;59783;52.232;5.170;2023-02-22T03:57:26;59.63;;;34.80;;
71910;SDS011;59783;52.232;5.170;2023-02-22T03:59:51;54.85;;;36.40;;
71910;SDS011;59783;52.232;5.170;2023-02-22T04:02:17;56.33;;;35.27;;
71910;SDS011;59783;52.232;5.170;2023-02-22T04:04:43;58.70;;;36.92;;
71910;SDS011;59783;52.232;5.170;2023-02-22T04:07:08;54.15;;;34.22;;
71910;SDS011;59783;52.232;5.170;2023-02-22T04:09:33;55.43;;;34.40;;
71910;SDS011;59783;52.232;5.170;2023-02-22T04:11:58;53.90;;;32.40;;
71910;SDS011;59783;52.232;5.170;2023-02-22T04:14:24;54.37;;;33.57;;
71910;SDS011;59783;52.232;5.170;2023-02-22T04:16:49;53.97;;;35.63;;
71910;SDS011;59783;52.232;5.170;2023-02-22T04:19:14;52.80;;;34.37;;
71910;SDS011;59783;52.232;5.170;2023-02-22T04:21:39;54.53;;;32.83;;
71910;SDS011;59783;52.232;5.170;2023-02-22T04:24:04;54.23;;;35.03;;
71910;SDS011;59783;52.232;5.170;2023-02-22T04:26:30;55.58;;;34.63;;
71910;SDS011;59783;52.232;5.170;2023-02-22T04:28:55;54.33;;;34.30;;
71910;SDS011;59783;52.232;5.170;2023-02-22T04:31:20;54.40;;;35.30;;
71910;SDS011;59783;52.232;5.170;2023-02-22T04:33:45;52.70;;;33.67;;
71910;SDS011;59783;52.232;5.170;2023-02-22T04:36:11;55.47;;;32.23;;
71910;SDS011;59783;52.232;5.170;2023-02-22T04:38:37;55.72;;;34.22;;
71910;SDS011;59783;52.232;5.170;2023-02-22T04:41:02;57.67;;;34.43;;
71910;SDS011;59783;52.232;5.170;2023-02-22T04:43:27;59.40;;;33.67;;
71910;SDS011;59783;52.232;5.170;2023-02-22T04:45:53;53.97;;;32.40;;
71910;SDS011;59783;52.232;5.170;2023-02-22T04:48:18;60.45;;;35.45;;
71910;SDS011;59783;52.232;5.170;2023-02-22T04:50:43;56.47;;;33.97;;
71910;SDS011;59783;52.232;5.170;2023-02-22T04:53:08;58.43;;;36.67;;
71910;SDS011;59783;52.232;5.170;2023-02-22T04:55:34;55.73;;;33.67;;
71910;SDS011;59783;52.232;5.170;2023-02-22T04:57:59;56.47;;;34.20;;
71910;SDS011;59783;52.232;5.170;2023-02-22T05:00:24;59.43;;;35.93;;
71910;SDS011;59783;52.232;5.170;2023-02-22T05:02:49;54.22;;;33.95;;
71910;SDS011;59783;52.232;5.170;2023-02-22T05:05:15;59.00;;;34.30;;
71910;SDS011;59783;52.232;5.170;2023-02-22T05:07:41;56.60;;;34.22;;
71910;SDS011;59783;52.232;5.170;2023-02-22T05:10:07;60.70;;;34.55;;
71910;SDS011;59783;52.232;5.170;2023-02-22T05:12:32;58.45;;;36.35;;
71910;SDS011;59783;52.232;5.170;2023-02-22T05:14:58;59.92;;;35.83;;
71910;SDS011;59783;52.232;5.170;2023-02-22T05:17:24;60.63;;;34.07;;
71910;SDS011;59783;52.232;5.170;2023-02-22T05:19:49;60.40;;;34.03;;
71910;SDS011;59783;52.232;5.170;2023-02-22T05:22:14;52.27;;;32.70;;
71910;SDS011;59783;52.232;5.170;2023-02-22T05:24:39;62.60;;;35.03;;
71910;SDS011;59783;52.232;5.170;2023-02-22T05:27:04;57.83;;;35.23;;
71910;SDS011;59783;52.232;5.170;2023-02-22T05:29:29;58.03;;;36.43;;
71910;SDS011;59783;52.232;5.170;2023-02-22T05:31:55;60.10;;;34.77;;
71910;SDS011;59783;52.232;5.170;2023-02-22T05:34:22;63.65;;;36.67;;
71910;SDS011;59783;52.232;5.170;2023-02-22T05:36:47;71.03;;;36.00;;
71910;SDS011;59783;52.232;5.170;2023-02-22T05:39:13;60.92;;;34.53;;
71910;SDS011;59783;52.232;5.170;2023-02-22T05:41:38;58.92;;;34.30;;
71910;SDS011;59783;52.232;5.170;2023-02-22T05:44:03;64.47;;;34.70;;
71910;SDS011;59783;52.232;5.170;2023-02-22T05:46:29;60.40;;;35.27;;
71910;SDS011;59783;52.232;5.170;2023-02-22T05:48:54;65.90;;;33.92;;
71910;SDS011;59783;52.232;5.170;2023-02-22T05:51:19;60.37;;;34.87;;
71910;SDS011;59783;52.232;5.170;2023-02-22T05:53:44;63.28;;;37.58;;
71910;SDS011;59783;52.232;5.170;2023-02-22T05:56:10;67.47;;;36.83;;
71910;SDS011;59783;52.232;5.170;2023-02-22T05:58:35;62.50;;;34.17;;
71910;SDS011;59783;52.232;5.170;2023-02-22T06:01:00;65.60;;;34.37;;
71910;SDS011;59783;52.232;5.170;2023-02-22T06:03:25;63.13;;;33.37;;
71910;SDS011;59783;52.232;5.170;2023-02-22T06:05:50;60.00;;;34.83;;
71910;SDS011;59783;52.232;5.170;2023-02-22T06:08:16;66.40;;;38.03;;
71910;SDS011;59783;52.232;5.170;2023-02-22T06:10:42;61.53;;;35.17;;
71910;SDS011;59783;52.232;5.170;2023-02-22T06:13:07;60.80;;;31.45;;
71910;SDS011;59783;52.232;5.170;2023-02-22T06:15:32;59.33;;;32.63;;
71910;SDS011;59783;52.232;5.170;2023-02-22T06:17:57;61.73;;;34.20;;
71910;SDS011;59783;52.232;5.170;2023-02-22T06:20:24;65.90;;;35.67;;
71910;SDS011;59783;52.232;5.170;2023-02-22T06:22:49;62.65;;;34.47;;
71910;SDS011;59783;52.232;5.170;2023-02-22T06:25:16;63.97;;;33.03;;
71910;SDS011;59783;52.232;5.170;2023-02-22T06:27:41;71.07;;;34.72;;
71910;SDS011;59783;52.232;5.170;2023-02-22T06:30:07;67.83;;;35.80;;
71910;SDS011;59783;52.232;5.170;2023-02-22T06:32:33;68.35;;;34.58;;
71910;SDS011;59783;52.232;5.170;2023-02-22T06:34:58;64.50;;;33.17;;
71910;SDS011;59783;52.232;5.170;2023-02-22T06:37:23;67.33;;;34.37;;
71910;SDS011;59783;52.232;5.170;2023-02-22T06:39:48;63.50;;;35.83;;
71910;SDS011;59783;52.232;5.170;2023-02-22T06:42:13;64.23;;;34.87;;
71910;SDS011;59783;52.232;5.170;2023-02-22T06:44:39;67.97;;;34.07;;
71910;SDS011;59783;52.232;5.170;2023-02-22T06:47:04;64.60;;;35.17;;
71910;SDS011;59783;52.232;5.170;2023-02-22T06:49:29;64.70;;;33.72;;
71910;SDS011;59783;52.232;5.170;2023-02-22T06:51:54;66.97;;;37.23;;
71910;SDS011;59783;52.232;5.170;2023-02-22T06:54:20;65.07;;;32.55;;
71910;SDS011;59783;52.232;5.170;2023-02-22T06:56:46;75.45;;;36.45;;
71910;SDS011;59783;52.232;5.170;2023-02-22T06:59:11;69.50;;;36.80;;
71910;SDS011;59783;52.232;5.170;2023-02-22T07:01:38;70.60;;;35.37;;
71910;SDS011;59783;52.232;5.170;2023-02-22T07:04:04;67.60;;;34.97;;
71910;SDS011;59783;52.232;5.170;2023-02-22T07:06:29;64.40;;;34.97;;
71910;SDS011;59783;52.232;5.170;2023-02-22T07:08:54;69.30;;;37.43;;
71910;SDS011;59783;52.232;5.170;2023-02-22T07:11:19;66.77;;;32.30;;
71910;SDS011;59783;52.232;5.170;2023-02-22T07:13:45;72.20;;;33.83;;
71910;SDS011;59783;52.232;5.170;2023-02-22T07:16:10;58.22;;;32.42;;
71910;SDS011;59783;52.232;5.170;2023-02-22T07:18:35;64.13;;;34.83;;
71910;SDS011;59783;52.232;5.170;2023-02-22T07:21:00;61.63;;;33.73;;
71910;SDS011;59783;52.232;5.170;2023-02-22T07:23:25;64.00;;;34.87;;
71910;SDS011;59783;52.232;5.170;2023-02-22T07:25:51;66.53;;;33.80;;
71910;SDS011;59783;52.232;5.170;2023-02-22T07:28:16;66.28;;;35.22;;
71910;SDS011;59783;52.232;5.170;2023-02-22T07:30:41;64.43;;;33.33;;
71910;SDS011;59783;52.232;5.170;2023-02-22T07:33:08;68.85;;;34.95;;
71910;SDS011;59783;52.232;5.170;2023-02-22T07:35:35;65.35;;;35.00;;
71910;SDS011;59783;52.232;5.170;2023-02-22T07:38:01;75.25;;;37.60;;
71910;SDS011;59783;52.232;5.170;2023-02-22T07:40:26;73.03;;;34.13;;
71910;SDS011;59783;52.232;5.170;2023-02-22T07:43:14;72.97;;;33.35;;
71910;SDS011;59783;52.232;5.170;2023-02-22T07:45:37;70.25;;;34.70;;
71910;SDS011;59783;52.232;5.170;2023-02-22T07:48:03;68.20;;;36.03;;
71910;SDS011;59783;52.232;5.170;2023-02-22T07:50:30;67.82;;;32.42;;
71910;SDS011;59783;52.232;5.170;2023-02-22T07:52:56;67.25;;;32.15;;
71910;SDS011;59783;52.232;5.170;2023-02-22T07:55:23;75.60;;;34.25;;
71910;SDS011;59783;52.232;5.170;2023-02-22T07:57:49;67.53;;;32.83;;
71910;SDS011;59783;52.232;5.170;2023-02-22T08:00:15;68.18;;;33.28;;
71910;SDS011;59783;52.232;5.170;2023-02-22T08:02:45;64.40;;;29.98;;
71910;SDS011;59783;52.232;5.170;2023-02-22T08:05:10;68.73;;;32.67;;
71910;SDS011;59783;52.232;5.170;2023-02-22T08:07:36;67.53;;;31.15;;
71910;SDS011;59783;52.232;5.170;2023-02-22T08:10:01;66.78;;;31.60;;
71910;SDS011;59783;52.232;5.170;2023-02-22T08:12:30;67.75;;;32.58;;
71910;SDS011;59783;52.232;5.170;2023-02-22T08:14:55;74.30;;;36.40;;
71910;SDS011;59783;52.232;5.170;2023-02-22T08:17:20;63.27;;;32.20;;
71910;SDS011;59783;52.232;5.170;2023-02-22T08:19:46;71.10;;;34.20;;
71910;SDS011;59783;52.232;5.170;2023-02-22T08:22:11;66.33;;;33.27;;
71910;SDS011;59783;52.232;5.170;2023-02-22T08:24:36;68.10;;;33.80;;
71910;SDS011;59783;52.232;5.170;2023-02-22T08:27:02;63.00;;;32.80;;
71910;SDS011;59783;52.232;5.170;2023-02-22T08:29:27;70.40;;;33.57;;
71910;SDS011;59783;52.232;5.170;2023-02-22T08:31:57;69.90;;;32.92;;
71910;SDS011;59783;52.232;5.170;2023-02-22T08:34:22;68.35;;;34.00;;
71910;SDS011;59783;52.232;5.170;2023-02-22T08:36:49;57.85;;;30.92;;
71910;SDS011;59783;52.232;5.170;2023-02-22T08:39:15;70.03;;;34.93;;
71910;SDS011;59783;52.232;5.170;2023-02-22T08:41:40;71.70;;;34.45;;
71910;SDS011;59783;52.232;5.170;2023-02-22T08:44:05;66.87;;;35.23;;
71910;SDS011;59783;52.232;5.170;2023-02-22T08:46:31;64.25;;;32.13;;
71910;SDS011;59783;52.232;5.170;2023-02-22T08:48:56;66.53;;;35.33;;
71910;SDS011;59783;52.232;5.170;2023-02-22T08:51:21;66.20;;;34.00;;
71910;SDS011;59783;52.232;5.170;2023-02-22T08:53:46;61.78;;;34.35;;
71910;SDS011;59783;52.232;5.170;2023-02-22T08:56:12;63.20;;;33.07;;
71910;SDS011;59783;52.232;5.170;2023-02-22T08:58:37;58.70;;;32.07;;
71910;SDS011;59783;52.232;5.170;2023-02-22T09:01:02;60.50;;;33.53;;
71910;SDS011;59783;52.232;5.170;2023-02-22T09:03:27;56.40;;;31.67;;
71910;SDS011;59783;52.232;5.170;2023-02-22T09:05:52;57.23;;;33.13;;
71910;SDS011;59783;52.232;5.170;2023-02-22T09:08:18;56.67;;;31.57;;
71910;SDS011;59783;52.232;5.170;2023-02-22T09:10:43;58.92;;;31.75;;
71910;SDS011;59783;52.232;5.170;2023-02-22T09:13:09;55.95;;;31.90;;
71910;SDS011;59783;52.232;5.170;2023-02-22T09:15:34;56.88;;;32.63;;
71910;SDS011;59783;52.232;5.170;2023-02-22T09:18:00;56.65;;;29.95;;
71910;SDS011;59783;52.232;5.170;2023-02-22T09:20:26;63.47;;;35.22;;
71910;SDS011;59783;52.232;5.170;2023-02-22T09:22:51;62.53;;;33.33;;
71910;SDS011;59783;52.232;5.170;2023-02-22T09:25:17;58.25;;;34.00;;
71910;SDS011;59783;52.232;5.170;2023-02-22T09:27:45;60.40;;;32.92;;
71910;SDS011;59783;52.232;5.170;2023-02-22T09:30:15;57.53;;;33.97;;
71910;SDS011;59783;52.232;5.170;2023-02-22T09:32:41;58.78;;;33.50;;
71910;SDS011;59783;52.232;5.170;2023-02-22T09:35:06;57.97;;;33.73;;
71910;SDS011;59783;52.232;5.170;2023-02-22T09:37:32;53.42;;;31.45;;
71910;SDS011;59783;52.232;5.170;2023-02-22T09:39:58;53.87;;;32.20;;
71910;SDS011;59783;52.232;5.170;2023-02-22T09:42:26;53.78;;;30.45;;
71910;SDS011;59783;52.232;5.170;2023-02-22T09:45:09;51.30;;;30.45;;
71910;SDS011;59783;52.232;5.170;2023-02-22T09:47:39;54.22;;;33.40;;
71910;SDS011;59783;52.232;5.170;2023-02-22T09:50:09;55.58;;;32.38;;
71910;SDS011;59783;52.232;5.170;2023-02-22T09:52:46;53.80;;;31.40;;
71910;SDS011;59783;52.232;5.170;2023-02-22T09:55:28;54.92;;;30.95;;
71910;SDS011;59783;52.232;5.170;2023-02-22T09:57:58;57.90;;;32.45;;
71910;SDS011;59783;52.232;5.170;2023-02-22T10:00:30;52.42;;;31.20;;
71910;SDS011;59783;52.232;5.170;2023-02-22T10:03:08;54.42;;;35.25;;
71910;SDS011;59783;52.232;5.170;2023-02-22T10:05:36;51.50;;;31.60;;
71910;SDS011;59783;52.232;5.170;2023-02-22T10:08:04;52.95;;;32.67;;
71910;SDS011;59783;52.232;5.170;2023-02-22T10:10:33;46.97;;;29.50;;
71910;SDS011;59783;52.232;5.170;2023-02-22T10:20:56;49.55;;;31.65;;
71910;SDS011;59783;52.232;5.170;2023-02-22T10:25:51;46.70;;;30.73;;
71910;SDS011;59783;52.232;5.170;2023-02-22T10:28:19;48.78;;;32.60;;
71910;SDS011;59783;52.232;5.170;2023-02-22T10:30:48;51.72;;;32.67;;
71910;SDS011;59783;52.232;5.170;2023-02-22T10:33:22;51.80;;;34.50;;
71910;SDS011;59783;52.232;5.170;2023-02-22T10:35:50;69.30;;;37.33;;
71910;SDS011;59783;52.232;5.170;2023-02-22T10:38:20;58.00;;;34.90;;
71910;SDS011;59783;52.232;5.170;2023-02-22T10:43:31;51.80;;;33.53;;
71910;SDS011;59783;52.232;5.170;2023-02-22T10:45:58;46.40;;;29.17;;
71910;SDS011;59783;52.232;5.170;2023-02-22T10:48:25;46.42;;;29.73;;
71910;SDS011;59783;52.232;5.170;2023-02-22T10:50:53;50.22;;;29.60;;
71910;SDS011;59783;52.232;5.170;2023-02-22T10:53:21;55.25;;;34.28;;
71910;SDS011;59783;52.232;5.170;2023-02-22T11:01:19;45.30;;;29.42;;
71910;SDS011;59783;52.232;5.170;2023-02-22T11:03:45;40.78;;;29.92;;
71910;SDS011;59783;52.232;5.170;2023-02-22T11:06:19;43.38;;;29.98;;
71910;SDS011;59783;52.232;5.170;2023-02-22T11:08:45;52.13;;;30.02;;
71910;SDS011;59783;52.232;5.170;2023-02-22T11:11:19;48.50;;;30.48;;
71910;SDS011;59783;52.232;5.170;2023-02-22T11:13:46;47.33;;;31.25;;
71910;SDS011;59783;52.232;5.170;2023-02-22T11:16:20;51.47;;;30.45;;
71910;SDS011;59783;52.232;5.170;2023-02-22T11:18:49;46.05;;;30.45;;
71910;SDS011;59783;52.232;5.170;2023-02-22T11:21:19;44.60;;;29.40;;
71910;SDS011;59783;52.232;5.170;2023-02-22T11:23:46;45.03;;;28.23;;
71910;SDS011;59783;52.232;5.170;2023-02-22T11:26:13;43.70;;;27.50;;
71910;SDS011;59783;52.232;5.170;2023-02-22T11:28:40;43.63;;;29.42;;
71910;SDS011;59783;52.232;5.170;2023-02-22T11:31:20;46.42;;;32.22;;
71910;SDS011;59783;52.232;5.170;2023-02-22T11:33:51;53.35;;;30.00;;
71910;SDS011;59783;52.232;5.170;2023-02-22T11:38:57;54.55;;;29.85;;
71910;SDS011;59783;52.232;5.170;2023-02-22T11:41:28;46.40;;;30.77;;
71910;SDS011;59783;52.232;5.170;2023-02-22T11:43:54;50.72;;;33.15;;
71910;SDS011;59783;52.232;5.170;2023-02-22T11:46:35;48.40;;;32.25;;
71910;SDS011;59783;52.232;5.170;2023-02-22T11:49:02;51.63;;;30.60;;
71910;SDS011;59783;52.232;5.170;2023-02-22T12:17:25;50.92;;;30.75;;
71910;SDS011;59783;52.232;5.170;2023-02-22T12:19:56;50.35;;;31.70;;
71910;SDS011;59783;52.232;5.170;2023-02-22T12:22:29;48.00;;;31.13;;
71910;SDS011;59783;52.232;5.170;2023-02-22T12:27:51;48.38;;;31.05;;
71910;SDS011;59783;52.232;5.170;2023-02-22T12:32:49;53.28;;;31.20;;
71910;SDS011;59783;52.232;5.170;2023-02-22T12:35:15;52.15;;;31.23;;
71910;SDS011;59783;52.232;5.170;2023-02-22T12:37:50;53.55;;;30.55;;
71910;SDS011;59783;52.232;5.170;2023-02-22T12:40:20;47.38;;;31.90;;
71910;SDS011;59783;52.232;5.170;2023-02-22T12:46:02;50.42;;;30.27;;
71910;SDS011;59783;52.232;5.170;2023-02-22T12:50:57;48.33;;;30.05;;
71910;SDS011;59783;52.232;5.170;2023-02-22T12:53:27;50.35;;;31.95;;
71910;SDS011;59783;52.232;5.170;2023-02-22T12:55:57;47.42;;;29.98;;
71910;SDS011;59783;52.232;5.170;2023-02-22T12:58:28;54.55;;;33.15;;
71910;SDS011;59783;52.232;5.170;2023-02-22T13:00:57;48.20;;;31.83;;
71910;SDS011;59783;52.232;5.170;2023-02-22T13:03:34;56.08;;;33.08;;
71910;SDS011;59783;52.232;5.170;2023-02-22T13:06:16;48.40;;;29.92;;
71910;SDS011;59783;52.232;5.170;2023-02-22T13:11:20;51.72;;;31.02;;
71910;SDS011;59783;52.232;5.170;2023-02-22T13:14:02;51.22;;;30.63;;
71910;SDS011;59783;52.232;5.170;2023-02-22T13:16:36;50.55;;;32.17;;
71910;SDS011;59783;52.232;5.170;2023-02-22T13:21:47;50.35;;;31.38;;
71910;SDS011;59783;52.232;5.170;2023-02-22T13:24:23;50.25;;;31.30;;
71910;SDS011;59783;52.232;5.170;2023-02-22T13:26:55;45.35;;;31.17;;
71910;SDS011;59783;52.232;5.170;2023-02-22T13:32:11;46.22;;;30.85;;
71910;SDS011;59783;52.232;5.170;2023-02-22T13:50:27;51.70;;;33.05;;
71910;SDS011;59783;52.232;5.170;2023-02-22T13:52:54;50.88;;;34.17;;
71910;SDS011;59783;52.232;5.170;2023-02-22T13:55:23;51.50;;;32.95;;
71910;SDS011;59783;52.232;5.170;2023-02-22T13:57:55;48.60;;;33.00;;
71910;SDS011;59783;52.232;5.170;2023-02-22T14:00:23;44.55;;;31.45;;
71910;SDS011;59783;52.232;5.170;2023-02-22T14:05:45;48.60;;;30.90;;
71910;SDS011;59783;52.232;5.170;2023-02-22T14:18:48;54.10;;;37.30;;
71910;SDS011;59783;52.232;5.170;2023-02-22T14:21:15;48.90;;;33.00;;
71910;SDS011;59783;52.232;5.170;2023-02-22T14:23:43;52.10;;;33.38;;
71910;SDS011;59783;52.232;5.170;2023-02-22T14:26:13;49.10;;;33.47;;
71910;SDS011;59783;52.232;5.170;2023-02-22T14:28:41;49.22;;;36.67;;
71910;SDS011;59783;52.232;5.170;2023-02-22T14:31:08;49.05;;;32.65;;
71910;SDS011;59783;52.232;5.170;2023-02-22T14:33:48;48.25;;;34.22;;
71910;SDS011;59783;52.232;5.170;2023-02-22T14:38:40;45.85;;;32.42;;
71910;SDS011;59783;52.232;5.170;2023-02-22T14:41:06;51.78;;;34.85;;
71910;SDS011;59783;52.232;5.170;2023-02-22T14:43:33;49.78;;;35.05;;
71910;SDS011;59783;52.232;5.170;2023-02-22T14:46:00;50.20;;;33.75;;
71910;SDS011;59783;52.232;5.170;2023-02-22T14:48:33;48.95;;;33.60;;
71910;SDS011;59783;52.232;5.170;2023-02-22T14:51:12;47.63;;;31.67;;
71910;SDS011;59783;52.232;5.170;2023-02-22T14:53:40;48.83;;;33.72;;
71910;SDS011;59783;52.232;5.170;2023-02-22T14:56:30;53.38;;;33.95;;
71910;SDS011;59783;52.232;5.170;2023-02-22T14:58:57;47.45;;;34.45;;
71910;SDS011;59783;52.232;5.170;2023-02-22T15:01:35;51.92;;;35.03;;
71910;SDS011;59783;52.232;5.170;2023-02-22T15:04:17;49.58;;;34.58;;
71910;SDS011;59783;52.232;5.170;2023-02-22T15:06:43;48.33;;;35.90;;
71910;SDS011;59783;52.232;5.170;2023-02-22T15:09:19;48.95;;;32.40;;
71910;SDS011;59783;52.232;5.170;2023-02-22T15:11:49;51.40;;;35.53;;
71910;SDS011;59783;52.232;5.170;2023-02-22T15:14:19;48.38;;;34.58;;
71910;SDS011;59783;52.232;5.170;2023-02-22T15:17:06;51.95;;;34.53;;
71910;SDS011;59783;52.232;5.170;2023-02-22T15:19:30;45.53;;;33.70;;
71910;SDS011;59783;52.232;5.170;2023-02-22T15:21:57;46.40;;;32.83;;
71910;SDS011;59783;52.232;5.170;2023-02-22T15:24:23;48.20;;;32.30;;
71910;SDS011;59783;52.232;5.170;2023-02-22T15:26:49;50.60;;;34.65;;
71910;SDS011;59783;52.232;5.170;2023-02-22T15:29:17;46.42;;;32.30;;
71910;SDS011;59783;52.232;5.170;2023-02-22T15:31:42;48.35;;;34.25;;
71910;SDS011;59783;52.232;5.170;2023-02-22T15:39:03;48.28;;;32.92;;
71910;SDS011;59783;52.232;5.170;2023-02-22T15:41:33;46.70;;;31.52;;
71910;SDS011;59783;52.232;5.170;2023-02-22T15:43:59;49.13;;;34.33;;
71910;SDS011;59783;52.232;5.170;2023-02-22T15:46:25;46.95;;;32.85;;
71910;SDS011;59783;52.232;5.170;2023-02-22T15:49:06;47.83;;;34.40;;
71910;SDS011;59783;52.232;5.170;2023-02-22T15:51:32;48.78;;;33.65;;
71910;SDS011;59783;52.232;5.170;2023-02-22T15:53:58;48.85;;;31.63;;
71910;SDS011;59783;52.232;5.170;2023-02-22T15:56:26;48.78;;;33.30;;
71910;SDS011;59783;52.232;5.170;2023-02-22T15:58:57;49.67;;;32.70;;
71910;SDS011;59783;52.232;5.170;2023-02-22T16:01:23;48.05;;;33.20;;
71910;SDS011;59783;52.232;5.170;2023-02-22T16:03:50;51.90;;;34.17;;
71910;SDS011;59783;52.232;5.170;2023-02-22T16:09:09;52.85;;;34.33;;
71910;SDS011;59783;52.232;5.170;2023-02-22T16:11:36;48.55;;;33.75;;
71910;SDS011;59783;52.232;5.170;2023-02-22T16:14:05;47.78;;;31.88;;
71910;SDS011;59783;52.232;5.170;2023-02-22T16:16:39;49.05;;;33.92;;
71910;SDS011;59783;52.232;5.170;2023-02-22T16:21:51;50.53;;;33.03;;
71910;SDS011;59783;52.232;5.170;2023-02-22T16:24:29;48.00;;;32.92;;
71910;SDS011;59783;52.232;5.170;2023-02-22T16:29:29;47.17;;;32.08;;
71910;SDS011;59783;52.232;5.170;2023-02-22T16:31:54;50.43;;;34.33;;
71910;SDS011;59783;52.232;5.170;2023-02-22T16:34:20;49.08;;;34.67;;
71910;SDS011;59783;52.232;5.170;2023-02-22T16:36:46;55.97;;;34.70;;
71910;SDS011;59783;52.232;5.170;2023-02-22T16:39:28;51.45;;;32.83;;
71910;SDS011;59783;52.232;5.170;2023-02-22T16:41:54;51.15;;;34.72;;
71910;SDS011;59783;52.232;5.170;2023-02-22T16:44:20;54.95;;;36.25;;
71910;SDS011;59783;52.232;5.170;2023-02-22T16:46:47;47.78;;;32.03;;
71910;SDS011;59783;52.232;5.170;2023-02-22T16:49:12;51.50;;;33.60;;
71910;SDS011;59783;52.232;5.170;2023-02-22T16:51:48;49.25;;;34.42;;
71910;SDS011;59783;52.232;5.170;2023-02-22T16:54:18;53.85;;;33.45;;